createdAt,value
2022-10-31T00:01:39.030Z,19.02
2022-10-31T00:04:07.439Z,22.60
2022-10-31T00:06:34.778Z,23.67
2022-10-31T00:09:05.321Z,15.50
2022-10-31T00:11:32.652Z,17.73
2022-10-31T00:14:00.479Z,13.60
2022-10-31T00:16:29.715Z,20.05
2022-10-31T00:19:03.386Z,16.70
2022-10-31T00:21:32.326Z,19.23
2022-10-31T00:24:00.888Z,20.27
2022-10-31T00:26:30.511Z,18.35
2022-10-31T00:29:00.906Z,14.43
2022-10-31T00:31:28.662Z,18.58
2022-10-31T00:33:56.433Z,20.38
2022-10-31T00:36:23.603Z,16.33
2022-10-31T00:38:50.801Z,22.15
2022-10-31T00:41:19.034Z,19.77
2022-10-31T00:43:46.393Z,17.73
2022-10-31T00:46:14.602Z,23.75
2022-10-31T00:48:43.027Z,22.42
2022-10-31T00:51:10.617Z,17.70
2022-10-31T00:53:37.884Z,18.58
2022-10-31T00:56:06.292Z,15.55
2022-10-31T00:58:33.454Z,20.85
2022-10-31T01:01:00.714Z,17.67
2022-10-31T01:03:32.688Z,15.90
2022-10-31T01:06:05.719Z,16.08
2022-10-31T01:08:35.570Z,18.35
2022-10-31T01:11:12.233Z,16.77
2022-10-31T01:13:42.396Z,13.48
2022-10-31T01:16:17.764Z,20.67
2022-10-31T01:18:45.353Z,18.38
2022-10-31T01:21:18.297Z,12.63
2022-10-31T01:23:46.631Z,14.88
2022-10-31T01:26:25.921Z,19.23
2022-10-31T01:29:02.317Z,16.30
2022-10-31T01:31:37.777Z,17.40
2022-10-31T01:34:07.524Z,17.70
2022-10-31T01:36:38.972Z,20.67
2022-10-31T01:39:14.772Z,16.40
2022-10-31T01:41:52.863Z,18.65
2022-10-31T01:44:19.950Z,15.23
2022-10-31T01:47:15.321Z,14.75
2022-10-31T01:49:59.102Z,14.80
2022-10-31T01:52:50.654Z,15.48
2022-10-31T01:55:36.118Z,20.90
2022-10-31T01:58:14.294Z,18.30
2022-10-31T02:00:47.806Z,18.95
2022-10-31T02:03:15.323Z,17.60
2022-10-31T02:05:44.657Z,18.05
2022-10-31T02:08:41.569Z,17.42
2022-10-31T02:11:09.287Z,18.73
2022-10-31T02:13:38.031Z,19.52
2022-10-31T02:16:10.372Z,13.90
2022-10-31T02:18:37.640Z,18.55
2022-10-31T02:21:28.021Z,24.27
2022-10-31T02:24:21.653Z,19.45
2022-10-31T02:27:31.369Z,19.67
2022-10-31T02:30:46.444Z,15.40
2022-10-31T02:33:43.714Z,16.25
2022-10-31T02:36:12.380Z,15.50
2022-10-31T02:39:24.802Z,19.38
2022-10-31T02:42:20.966Z,15.63
2022-10-31T02:45:11.348Z,19.02
2022-10-31T02:47:39.888Z,19.23
2022-10-31T02:50:25.100Z,17.23
2022-10-31T02:52:53.532Z,15.93
2022-10-31T02:55:26.742Z,16.75
2022-10-31T02:58:11.192Z,15.80
2022-10-31T03:01:29.380Z,14.90
2022-10-31T03:04:23.087Z,15.73
2022-10-31T03:07:40.141Z,16.15
2022-10-31T03:10:47.738Z,17.90
2022-10-31T03:13:44.616Z,15.25
2022-10-31T03:16:51.108Z,16.70
2022-10-31T03:19:34.178Z,16.73
2022-10-31T03:22:25.298Z,17.85
2022-10-31T03:24:55.560Z,15.35
2022-10-31T03:27:28.960Z,13.82
2022-10-31T03:30:02.373Z,19.48
2022-10-31T03:33:00.147Z,15.00
2022-10-31T03:35:31.668Z,19.65
2022-10-31T03:38:06.768Z,23.33
2022-10-31T03:40:38.638Z,25.13
2022-10-31T03:43:15.178Z,20.42
2022-10-31T03:45:47.806Z,14.25
2022-10-31T03:48:18.944Z,22.63
2022-10-31T03:51:12.735Z,17.85
2022-10-31T03:54:30.719Z,15.98
2022-10-31T03:57:27.563Z,21.77
2022-10-31T04:00:16.077Z,19.88
2022-10-31T04:03:32.180Z,16.27
2022-10-31T04:06:07.960Z,19.75
2022-10-31T04:08:52.559Z,19.90
2022-10-31T04:11:26.758Z,17.45
2022-10-31T04:14:13.869Z,25.35
2022-10-31T04:16:44.964Z,20.27
2022-10-31T04:19:14.035Z,22.63
2022-10-31T04:21:44.251Z,13.50
2022-10-31T04:24:12.395Z,20.75
2022-10-31T04:26:40.405Z,19.45
2022-10-31T04:29:08.049Z,18.52
2022-10-31T04:31:35.289Z,16.88
2022-10-31T04:34:03.074Z,24.23
2022-10-31T04:36:30.298Z,18.75
2022-10-31T04:38:58.868Z,20.50
2022-10-31T04:41:40.899Z,18.52
2022-10-31T04:44:17.358Z,17.38
2022-10-31T04:46:48.531Z,21.67
2022-10-31T04:49:15.787Z,18.17
2022-10-31T04:51:43.094Z,22.05
2022-10-31T04:54:10.601Z,22.77
2022-10-31T04:57:09.976Z,18.05
2022-10-31T04:59:38.179Z,16.08
2022-10-31T05:02:05.465Z,15.50
2022-10-31T05:04:43.539Z,15.15
2022-10-31T05:07:10.822Z,19.75
2022-10-31T05:09:38.043Z,20.52
2022-10-31T05:12:05.722Z,18.50
2022-10-31T05:14:51.367Z,13.82
2022-10-31T05:17:38.446Z,21.70
2022-10-31T05:20:29.410Z,12.50
2022-10-31T05:23:15.535Z,15.27
2022-10-31T05:25:43.304Z,14.80
2022-10-31T05:28:10.613Z,14.98
2022-10-31T05:30:38.416Z,17.15
2022-10-31T05:33:09.510Z,15.27
2022-10-31T05:35:55.285Z,19.52
2022-10-31T05:38:25.305Z,16.55
2022-10-31T05:41:01.911Z,16.58
2022-10-31T05:43:31.506Z,18.17
2022-10-31T05:45:58.987Z,15.43
2022-10-31T05:48:44.652Z,17.50
2022-10-31T05:51:38.135Z,16.27
2022-10-31T05:54:05.937Z,16.88
2022-10-31T05:56:33.179Z,19.63
2022-10-31T05:59:01.197Z,16.85
2022-10-31T06:01:28.540Z,17.98
2022-10-31T06:03:57.713Z,15.23
2022-10-31T06:06:25.002Z,13.57
2022-10-31T06:08:53.137Z,16.17
2022-10-31T06:11:23.344Z,14.88
2022-10-31T06:14:03.001Z,17.25
2022-10-31T06:16:44.573Z,16.88
2022-10-31T06:19:31.713Z,19.05
2022-10-31T06:21:59.707Z,16.52
2022-10-31T06:24:26.963Z,12.95
2022-10-31T06:26:54.184Z,15.68
2022-10-31T06:29:22.205Z,21.30
2022-10-31T06:32:02.367Z,13.20
2022-10-31T06:34:31.063Z,15.70
2022-10-31T06:37:00.023Z,17.20
2022-10-31T06:39:28.668Z,15.52
2022-10-31T06:41:55.964Z,17.40
2022-10-31T06:44:24.350Z,11.40
2022-10-31T06:47:14.379Z,17.17
2022-10-31T06:50:06.163Z,14.40
2022-10-31T06:52:33.372Z,15.40
2022-10-31T06:55:00.502Z,16.15
2022-10-31T06:57:28.870Z,19.75
2022-10-31T06:59:56.750Z,15.55
2022-10-31T07:02:42.262Z,17.90
2022-10-31T07:05:09.541Z,15.75
2022-10-31T07:07:37.313Z,19.23
2022-10-31T07:10:05.208Z,15.63
2022-10-31T07:13:07.410Z,23.42
2022-10-31T07:15:40.218Z,28.05
2022-10-31T07:18:11.236Z,16.65
2022-10-31T07:20:38.908Z,16.48
2022-10-31T07:23:06.525Z,15.23
2022-10-31T07:25:34.156Z,16.08
2022-10-31T07:28:01.888Z,16.20
2022-10-31T07:30:29.504Z,16.60
2022-10-31T07:32:57.837Z,12.75
2022-10-31T07:35:36.206Z,13.75
2022-10-31T07:38:15.220Z,24.88
2022-10-31T07:40:43.853Z,21.17
2022-10-31T07:43:14.811Z,20.88
2022-10-31T07:46:02.538Z,25.55
2022-10-31T07:48:48.097Z,17.10
2022-10-31T07:51:34.048Z,20.10
2022-10-31T07:54:16.183Z,16.40
2022-10-31T07:56:43.371Z,14.23
2022-10-31T07:59:10.675Z,21.38
2022-10-31T08:01:37.883Z,15.50
2022-10-31T08:04:40.314Z,23.27
2022-10-31T08:07:39.633Z,21.02
2022-10-31T08:10:13.975Z,14.05
2022-10-31T08:12:41.508Z,17.17
2022-10-31T08:15:10.180Z,19.35
2022-10-31T08:17:38.961Z,19.48
2022-10-31T08:20:07.351Z,16.45
2022-10-31T08:22:43.823Z,20.45
2022-10-31T08:25:11.723Z,15.27
2022-10-31T08:27:39.824Z,23.35
2022-10-31T08:30:09.883Z,25.10
2022-10-31T08:32:39.798Z,25.08
2022-10-31T08:35:39.502Z,26.75
2022-10-31T08:38:38.823Z,25.02
2022-10-31T08:41:09.576Z,24.30
2022-10-31T08:43:37.707Z,21.10
2022-10-31T08:46:05.269Z,21.85
2022-10-31T08:48:33.278Z,21.35
2022-10-31T08:51:02.013Z,20.08
2022-10-31T08:53:30.414Z,21.38
2022-10-31T08:56:15.792Z,20.77
2022-10-31T08:58:42.976Z,27.67
2022-10-31T09:01:11.316Z,22.25
2022-10-31T09:03:38.611Z,23.90
2022-10-31T09:06:09.697Z,19.90
2022-10-31T09:08:38.192Z,21.55
2022-10-31T09:11:07.455Z,24.10
2022-10-31T09:14:10.209Z,26.42
2022-10-31T09:16:40.280Z,18.05
2022-10-31T09:19:13.696Z,22.73
2022-10-31T09:21:45.615Z,22.23
2022-10-31T09:24:12.933Z,21.55
2022-10-31T09:26:42.487Z,24.38
2022-10-31T09:29:24.555Z,19.58
2022-10-31T09:31:57.744Z,19.88
2022-10-31T09:34:33.878Z,21.60
2022-10-31T09:37:06.116Z,19.25
2022-10-31T09:39:35.784Z,21.05
2022-10-31T09:42:51.088Z,26.27
2022-10-31T09:45:45.248Z,27.10
2022-10-31T09:49:14.111Z,29.58
2022-10-31T09:52:25.138Z,25.90
2022-10-31T09:55:06.030Z,25.60
2022-10-31T09:57:38.086Z,23.75
2022-10-31T10:00:11.145Z,28.00
2022-10-31T10:03:00.068Z,32.35
2022-10-31T10:05:45.040Z,23.00
2022-10-31T10:08:26.659Z,27.20
2022-10-31T10:11:56.179Z,28.45
2022-10-31T10:14:58.078Z,22.95
2022-10-31T10:17:52.755Z,19.42
2022-10-31T10:20:35.787Z,19.98
2022-10-31T10:23:37.703Z,32.60
2022-10-31T10:27:00.663Z,23.10
2022-10-31T10:29:59.325Z,23.95
2022-10-31T10:32:32.581Z,24.83
2022-10-31T10:35:36.270Z,22.60
2022-10-31T10:38:36.703Z,25.35
2022-10-31T10:41:12.997Z,24.85
2022-10-31T10:43:40.656Z,24.02
2022-10-31T10:47:08.916Z,21.52
2022-10-31T10:49:54.300Z,28.42
2022-10-31T10:52:53.837Z,23.23
2022-10-31T10:55:56.416Z,25.85
2022-10-31T10:58:23.927Z,18.90
2022-10-31T11:00:54.423Z,19.73
2022-10-31T11:03:21.859Z,19.55
2022-10-31T11:06:02.089Z,20.77
2022-10-31T11:08:32.508Z,18.83
2022-10-31T11:11:17.818Z,25.90
2022-10-31T11:13:51.370Z,23.33
2022-10-31T11:16:35.532Z,22.67
2022-10-31T11:19:13.074Z,22.55
2022-10-31T11:21:40.295Z,20.63
2022-10-31T11:24:10.375Z,20.80
2022-10-31T11:26:40.486Z,24.48
2022-10-31T11:29:26.806Z,26.30
2022-10-31T11:32:00.955Z,21.42
2022-10-31T11:34:35.895Z,21.13
2022-10-31T11:37:28.162Z,23.20
2022-10-31T11:40:00.247Z,26.67
2022-10-31T11:42:37.098Z,22.48
2022-10-31T11:45:23.843Z,27.33
2022-10-31T11:47:59.192Z,21.67
2022-10-31T11:50:43.424Z,24.58
2022-10-31T11:53:56.725Z,21.80
2022-10-31T11:56:27.813Z,26.70
2022-10-31T11:59:06.822Z,21.70
2022-10-31T12:01:34.541Z,21.65
2022-10-31T12:04:10.934Z,24.63
2022-10-31T12:06:43.036Z,19.60
2022-10-31T12:09:34.648Z,19.42
2022-10-31T12:12:30.962Z,20.70
2022-10-31T12:15:34.338Z,20.90
2022-10-31T12:18:33.799Z,23.85
2022-10-31T12:22:14.324Z,25.33
2022-10-31T12:25:52.257Z,21.58
2022-10-31T12:31:55.115Z,24.00
2022-10-31T12:34:49.965Z,22.85
2022-10-31T12:38:04.343Z,19.08
2022-10-31T12:41:08.947Z,17.98
2022-10-31T12:43:58.507Z,16.10
2022-10-31T12:46:37.561Z,21.90
2022-10-31T12:49:40.032Z,19.42
2022-10-31T12:52:54.380Z,16.42
2022-10-31T12:56:02.055Z,23.02
2022-10-31T12:58:46.725Z,20.58
2022-10-31T13:01:27.578Z,19.40
2022-10-31T13:04:17.988Z,22.90
2022-10-31T13:07:11.293Z,18.77
2022-10-31T13:10:03.763Z,19.27
2022-10-31T13:12:37.374Z,24.50
2022-10-31T13:15:28.978Z,26.92
2022-10-31T13:18:03.079Z,17.17
2022-10-31T13:20:41.395Z,14.77
2022-10-31T13:23:50.383Z,14.95
2022-10-31T13:26:46.374Z,16.85
2022-10-31T13:29:56.868Z,16.35
2022-10-31T13:32:25.670Z,15.13
2022-10-31T13:34:59.180Z,15.00
2022-10-31T13:37:42.690Z,18.40
2022-10-31T13:40:43.722Z,15.35
2022-10-31T13:43:34.332Z,24.92
2022-10-31T13:46:01.643Z,21.02
2022-10-31T13:48:28.771Z,17.15
2022-10-31T13:51:05.393Z,18.70
2022-10-31T13:53:43.047Z,15.35
2022-10-31T13:56:25.490Z,15.43
2022-10-31T13:59:10.737Z,17.85
2022-10-31T14:01:47.459Z,17.10
2022-10-31T14:04:25.857Z,11.55
2022-10-31T14:07:17.298Z,13.73
2022-10-31T14:10:06.276Z,18.85
2022-10-31T14:12:42.207Z,15.32
2022-10-31T14:15:24.794Z,15.32
2022-10-31T14:18:01.864Z,17.02
2022-10-31T14:20:45.025Z,23.45
2022-10-31T14:23:38.547Z,14.93
2022-10-31T14:26:26.639Z,16.15
2022-10-31T14:29:20.821Z,19.30
2022-10-31T14:32:27.611Z,16.40
2022-10-31T14:34:58.827Z,13.80
2022-10-31T14:38:11.944Z,17.17
2022-10-31T14:40:58.703Z,15.98
2022-10-31T14:44:15.248Z,15.88
2022-10-31T14:46:57.044Z,20.08
2022-10-31T14:49:35.155Z,18.15
2022-10-31T14:52:06.943Z,20.42
2022-10-31T14:54:42.150Z,18.73
2022-10-31T15:00:00.787Z,14.88
2022-10-31T15:02:57.108Z,15.05
2022-10-31T15:05:27.133Z,13.05
2022-10-31T15:07:58.625Z,20.65
2022-10-31T15:10:33.133Z,13.35
2022-10-31T15:13:24.865Z,15.70
2022-10-31T15:15:56.444Z,20.63
2022-10-31T15:18:28.609Z,14.40
2022-10-31T15:20:57.778Z,17.05
2022-10-31T15:23:30.034Z,21.30
2022-10-31T15:26:06.532Z,21.30
2022-10-31T15:28:33.794Z,15.48
2022-10-31T15:31:03.963Z,13.93
2022-10-31T15:33:47.886Z,19.55
2022-10-31T15:36:27.152Z,22.77
2022-10-31T15:38:59.803Z,16.52
2022-10-31T15:41:54.831Z,18.17
2022-10-31T15:44:43.272Z,20.88
2022-10-31T15:47:27.176Z,20.73
2022-10-31T15:50:00.081Z,21.60
2022-10-31T15:52:34.195Z,16.92
2022-10-31T15:55:11.706Z,20.50
2022-10-31T15:57:54.053Z,21.05
2022-10-31T16:00:38.363Z,21.48
2022-10-31T16:03:31.655Z,19.98
2022-10-31T16:06:06.641Z,19.27
2022-10-31T16:08:37.042Z,21.45
2022-10-31T16:11:13.607Z,21.98
2022-10-31T16:14:29.019Z,21.67
2022-10-31T16:16:59.538Z,23.15
2022-10-31T16:19:48.493Z,26.08
2022-10-31T16:22:28.475Z,23.95
2022-10-31T16:25:30.370Z,21.13
2022-10-31T16:28:16.151Z,16.13
2022-10-31T16:30:50.168Z,22.60
2022-10-31T16:33:37.125Z,24.88
2022-10-31T16:36:35.246Z,21.65
2022-10-31T16:39:04.094Z,19.70
2022-10-31T16:41:32.972Z,20.63
2022-10-31T16:44:03.374Z,21.13
2022-10-31T16:46:30.541Z,24.02
2022-10-31T16:48:58.660Z,21.95
2022-10-31T16:51:25.906Z,22.55
2022-10-31T16:53:54.299Z,18.77
2022-10-31T16:56:34.018Z,23.17
2022-10-31T16:59:05.449Z,20.88
2022-10-31T17:01:33.748Z,19.52
2022-10-31T17:04:00.981Z,21.77
2022-10-31T17:06:28.518Z,24.73
2022-10-31T17:08:55.782Z,23.98
2022-10-31T17:11:26.124Z,22.15
2022-10-31T17:13:54.923Z,24.15
2022-10-31T17:16:22.173Z,21.42
2022-10-31T17:18:49.443Z,26.52
2022-10-31T17:21:26.275Z,23.00
2022-10-31T17:23:53.818Z,20.73
2022-10-31T17:26:21.437Z,22.40
2022-10-31T17:28:49.231Z,25.42
2022-10-31T17:31:31.439Z,29.08
2022-10-31T17:34:02.725Z,24.70
2022-10-31T17:36:33.528Z,32.05
2022-10-31T17:39:00.959Z,28.73
2022-10-31T17:41:28.123Z,26.98
2022-10-31T17:43:59.581Z,34.50
2022-10-31T17:46:28.285Z,27.08
2022-10-31T17:48:55.634Z,31.00
2022-10-31T17:51:23.019Z,32.55
2022-10-31T17:53:50.301Z,42.90
2022-10-31T17:56:17.489Z,30.25
2022-10-31T17:58:44.715Z,35.85
2022-10-31T18:01:16.303Z,31.20
2022-10-31T18:03:44.495Z,35.22
2022-10-31T18:06:14.481Z,31.92
2022-10-31T18:08:42.361Z,26.48
2022-10-31T18:11:21.990Z,30.10
2022-10-31T18:13:56.790Z,37.13
2022-10-31T18:16:25.391Z,31.98
2022-10-31T18:18:58.520Z,34.28
2022-10-31T18:21:25.998Z,30.00
2022-10-31T18:24:00.654Z,29.90
2022-10-31T18:26:29.227Z,26.80
2022-10-31T18:28:56.524Z,46.10
2022-10-31T18:31:24.492Z,30.05
2022-10-31T18:33:56.425Z,33.22
2022-10-31T18:36:24.639Z,30.33
2022-10-31T18:38:51.915Z,31.75
2022-10-31T18:41:19.614Z,26.00
2022-10-31T18:43:46.824Z,27.67
2022-10-31T18:46:17.997Z,25.65
2022-10-31T18:48:45.764Z,28.92
2022-10-31T18:51:14.670Z,22.95
2022-10-31T18:53:41.981Z,27.70
2022-10-31T18:56:11.140Z,33.60
2022-10-31T18:58:38.288Z,26.70
2022-10-31T19:01:13.224Z,22.52
2022-10-31T19:03:41.357Z,30.42
2022-10-31T19:06:10.126Z,27.48
2022-10-31T19:08:39.629Z,25.38
2022-10-31T19:11:13.939Z,29.83
2022-10-31T19:13:43.782Z,25.17
2022-10-31T19:16:16.458Z,23.70
2022-10-31T19:18:44.844Z,28.08
2022-10-31T19:21:17.300Z,32.38
2022-10-31T19:23:45.536Z,23.55
2022-10-31T19:26:13.886Z,28.75
2022-10-31T19:28:42.013Z,25.95
2022-10-31T19:31:10.419Z,27.23
2022-10-31T19:33:37.864Z,31.75
2022-10-31T19:36:15.492Z,26.05
2022-10-31T19:38:47.328Z,21.08
2022-10-31T19:41:26.048Z,32.78
2022-10-31T19:43:54.437Z,24.58
2022-10-31T19:46:40.355Z,27.23
2022-10-31T19:49:11.932Z,24.90
2022-10-31T19:51:39.182Z,27.60
2022-10-31T19:54:06.903Z,26.27
2022-10-31T19:56:34.073Z,26.98
2022-10-31T19:59:02.652Z,29.90
2022-10-31T20:01:30.394Z,26.17
2022-10-31T20:03:57.734Z,26.67
2022-10-31T20:06:28.280Z,27.05
2022-10-31T20:08:56.491Z,23.85
2022-10-31T20:11:26.798Z,30.17
2022-10-31T20:13:58.956Z,32.08
2022-10-31T20:16:28.120Z,23.88
2022-10-31T20:18:56.401Z,24.35
2022-10-31T20:21:28.526Z,25.67
2022-10-31T20:24:02.534Z,29.77
2022-10-31T20:26:32.100Z,25.33
2022-10-31T20:29:01.896Z,23.55
2022-10-31T20:31:36.396Z,24.50
2022-10-31T20:34:04.318Z,27.25
2022-10-31T20:36:31.659Z,24.15
2022-10-31T20:39:00.170Z,26.95
2022-10-31T20:41:27.391Z,22.35
2022-10-31T20:43:55.041Z,29.60
2022-10-31T20:46:26.384Z,27.35
2022-10-31T20:48:54.669Z,30.05
2022-10-31T20:51:28.696Z,35.90
2022-10-31T20:53:59.890Z,25.45
2022-10-31T20:56:28.622Z,29.98
2022-10-31T20:58:57.411Z,25.23
2022-10-31T21:01:29.628Z,24.67
2022-10-31T21:03:58.663Z,26.30
2022-10-31T21:06:26.789Z,24.30
2022-10-31T21:08:54.602Z,27.08
2022-10-31T21:11:25.509Z,28.88
2022-10-31T21:13:53.617Z,27.58
2022-10-31T21:16:25.893Z,26.40
2022-10-31T21:18:55.430Z,28.70
2022-10-31T21:21:36.056Z,21.05
2022-10-31T21:24:10.416Z,24.15
2022-10-31T21:26:42.689Z,25.85
2022-10-31T21:29:11.976Z,25.52
2022-10-31T21:31:40.441Z,31.08
2022-10-31T21:34:08.098Z,29.63
2022-10-31T21:36:36.109Z,26.80
2022-10-31T21:39:06.633Z,29.60
2022-10-31T21:41:34.101Z,25.90
2022-10-31T21:44:01.975Z,26.90
2022-10-31T21:46:33.997Z,27.60
2022-10-31T21:49:03.957Z,35.83
2022-10-31T21:51:35.359Z,26.45
2022-10-31T21:54:22.247Z,23.65
2022-10-31T21:56:49.528Z,27.83
2022-10-31T21:59:16.877Z,17.15
2022-10-31T22:01:44.263Z,24.50
2022-10-31T22:04:11.547Z,28.33
2022-10-31T22:06:38.898Z,21.27
2022-10-31T22:09:10.152Z,23.38
2022-10-31T22:11:37.511Z,26.95
2022-10-31T22:14:05.089Z,26.05
2022-10-31T22:16:36.608Z,28.20
2022-10-31T22:19:06.129Z,25.20
2022-10-31T22:21:47.297Z,22.90
2022-10-31T22:24:16.493Z,29.02
2022-10-31T22:26:44.113Z,22.20
2022-10-31T22:29:15.753Z,26.70
2022-10-31T22:31:53.485Z,25.38
2022-10-31T22:34:24.692Z,28.90
2022-10-31T22:36:54.257Z,25.10
2022-10-31T22:39:21.500Z,23.30
2022-10-31T22:41:48.630Z,21.90
2022-10-31T22:44:15.761Z,24.17
2022-10-31T22:46:42.935Z,27.10
2022-10-31T22:49:15.158Z,27.38
2022-10-31T22:51:43.777Z,26.35
2022-10-31T22:54:17.816Z,31.33
2022-10-31T22:56:46.172Z,22.35
2022-10-31T22:59:15.946Z,36.17
2022-10-31T23:01:47.194Z,29.75
2022-10-31T23:04:16.482Z,28.83
2022-10-31T23:06:44.292Z,25.38
2022-10-31T23:09:16.433Z,25.55
2022-10-31T23:11:44.503Z,21.02
2022-10-31T23:14:20.514Z,25.48
2022-10-31T23:16:56.063Z,23.98
2022-10-31T23:19:30.456Z,20.33
2022-10-31T23:22:03.968Z,23.33
2022-10-31T23:24:44.641Z,25.63
2022-10-31T23:27:17.450Z,24.05
2022-10-31T23:29:56.399Z,31.48
2022-10-31T23:32:35.054Z,28.35
2022-10-31T23:35:10.374Z,23.90
2022-10-31T23:37:39.139Z,24.83
2022-10-31T23:40:10.600Z,25.48
2022-10-31T23:42:38.471Z,28.00
2022-10-31T23:45:06.396Z,22.63
2022-10-31T23:47:33.782Z,35.65
2022-10-31T23:50:00.899Z,21.83
2022-10-31T23:52:28.221Z,25.40
2022-10-31T23:54:55.389Z,28.65
2022-10-31T23:57:22.522Z,25.45
2022-10-31T23:59:49.647Z,27.15
